createdAt,value
2023-03-16T00:01:06.178Z,3.00
2023-03-16T00:03:36.606Z,3.00
2023-03-16T00:06:05.157Z,3.00
2023-03-16T00:08:33.128Z,3.00
2023-03-16T00:11:02.734Z,3.00
2023-03-16T00:13:32.667Z,3.00
2023-03-16T00:16:02.879Z,3.00
2023-03-16T00:18:30.992Z,2.90
2023-03-16T00:21:02.857Z,2.90
2023-03-16T00:23:35.567Z,2.80
2023-03-16T00:26:05.168Z,2.80
2023-03-16T00:28:35.686Z,2.80
2023-03-16T00:31:03.950Z,2.80
2023-03-16T00:33:34.808Z,2.80
2023-03-16T00:36:05.212Z,2.70
2023-03-16T00:38:35.761Z,2.70
2023-03-16T00:41:04.830Z,2.60
2023-03-16T00:43:40.697Z,2.60
2023-03-16T00:46:10.154Z,2.50
2023-03-16T00:48:42.493Z,2.90
2023-03-16T00:51:14.936Z,2.50
2023-03-16T00:53:45.018Z,2.50
2023-03-16T00:56:13.778Z,2.50
2023-03-16T00:58:43.501Z,2.50
2023-03-16T01:01:14.853Z,2.50
2023-03-16T01:03:43.099Z,2.50
2023-03-16T01:06:14.238Z,2.40
2023-03-16T01:08:42.937Z,2.40
2023-03-16T01:11:13.571Z,2.40
2023-03-16T01:13:41.683Z,2.40
2023-03-16T01:16:10.953Z,2.40
2023-03-16T01:18:39.386Z,2.40
2023-03-16T01:21:14.106Z,2.30
2023-03-16T01:23:44.278Z,2.40
2023-03-16T01:26:12.812Z,2.40
2023-03-16T01:28:40.816Z,2.40
2023-03-16T01:31:11.753Z,2.40
2023-03-16T01:33:40.031Z,2.40
2023-03-16T01:36:10.354Z,2.40
2023-03-16T01:38:38.515Z,2.30
2023-03-16T01:41:08.885Z,2.20
2023-03-16T01:43:39.011Z,2.20
2023-03-16T01:46:23.511Z,2.20
2023-03-16T01:48:58.630Z,2.20
2023-03-16T01:51:32.808Z,2.20
2023-03-16T01:54:04.446Z,2.20
2023-03-16T01:56:37.869Z,2.20
2023-03-16T01:59:12.698Z,2.20
2023-03-16T02:01:41.045Z,2.20
2023-03-16T02:04:18.099Z,2.30
2023-03-16T02:06:48.404Z,2.20
2023-03-16T02:09:17.664Z,2.20
2023-03-16T02:11:48.279Z,2.20
2023-03-16T02:14:16.224Z,2.30
2023-03-16T02:16:44.979Z,2.10
2023-03-16T02:19:18.086Z,2.10
2023-03-16T02:21:54.849Z,2.10
2023-03-16T02:24:23.324Z,2.20
2023-03-16T02:26:58.784Z,2.20
2023-03-16T02:29:43.114Z,2.10
2023-03-16T02:32:12.584Z,2.10
2023-03-16T02:34:40.730Z,2.10
2023-03-16T02:37:09.995Z,2.10
2023-03-16T02:39:38.005Z,2.00
2023-03-16T02:42:06.554Z,2.00
2023-03-16T02:44:40.650Z,2.00
2023-03-16T02:47:14.953Z,2.00
2023-03-16T02:49:46.287Z,1.90
2023-03-16T02:52:14.347Z,1.90
2023-03-16T02:54:42.430Z,1.90
2023-03-16T02:57:10.787Z,2.00
2023-03-16T02:59:38.734Z,1.90
2023-03-16T03:02:07.638Z,1.90
2023-03-16T03:04:37.814Z,1.80
2023-03-16T03:07:06.227Z,1.80
2023-03-16T03:09:34.367Z,1.80
2023-03-16T03:12:02.378Z,1.90
2023-03-16T03:14:30.379Z,1.90
2023-03-16T03:16:58.354Z,1.90
2023-03-16T03:19:26.423Z,1.90
2023-03-16T03:21:56.833Z,2.00
2023-03-16T03:24:25.381Z,2.00
2023-03-16T03:26:53.457Z,2.00
2023-03-16T03:29:21.443Z,2.00
2023-03-16T03:31:49.650Z,2.00
2023-03-16T03:34:17.670Z,1.90
2023-03-16T03:36:45.644Z,1.90
2023-03-16T03:39:14.953Z,1.90
2023-03-16T03:41:42.944Z,1.90
2023-03-16T03:44:10.950Z,1.90
2023-03-16T03:46:39.022Z,1.90
2023-03-16T03:49:07.205Z,1.90
2023-03-16T03:51:36.296Z,1.90
2023-03-16T03:54:04.504Z,1.90
2023-03-16T03:56:34.150Z,2.00
2023-03-16T03:59:02.113Z,2.00
2023-03-16T04:01:30.065Z,1.90
2023-03-16T04:03:58.054Z,1.90
2023-03-16T04:06:26.044Z,1.90
2023-03-16T04:08:54.757Z,1.90
2023-03-16T04:11:22.884Z,1.80
2023-03-16T04:13:53.965Z,1.90
2023-03-16T04:16:22.326Z,1.70
2023-03-16T04:18:50.348Z,1.60
2023-03-16T04:21:19.482Z,1.70
2023-03-16T04:23:47.455Z,1.60
2023-03-16T04:26:15.602Z,1.70
2023-03-16T04:28:44.295Z,1.60
2023-03-16T04:31:14.054Z,1.60
2023-03-16T04:33:43.354Z,1.50
2023-03-16T04:36:12.074Z,1.50
2023-03-16T04:38:40.462Z,1.50
2023-03-16T04:41:08.684Z,1.40
2023-03-16T04:43:36.694Z,1.40
2023-03-16T04:46:06.366Z,1.40
2023-03-16T04:48:35.784Z,1.40
2023-03-16T04:51:04.856Z,1.40
2023-03-16T04:53:33.308Z,1.50
2023-03-16T04:56:01.603Z,1.50
2023-03-16T04:58:29.593Z,1.50
2023-03-16T05:00:57.603Z,1.40
2023-03-16T05:03:25.812Z,1.50
2023-03-16T05:05:55.211Z,1.50
2023-03-16T05:08:23.568Z,1.60
2023-03-16T05:10:52.461Z,1.70
2023-03-16T05:13:20.921Z,1.60
2023-03-16T05:15:49.364Z,1.60
2023-03-16T05:18:17.395Z,1.70
2023-03-16T05:20:45.757Z,1.70
2023-03-16T05:23:16.714Z,1.70
2023-03-16T05:25:47.053Z,1.70
2023-03-16T05:28:15.435Z,1.70
2023-03-16T05:30:45.285Z,1.80
2023-03-16T05:33:13.829Z,1.70
2023-03-16T05:35:43.039Z,1.70
2023-03-16T05:38:11.154Z,1.70
2023-03-16T05:40:40.496Z,1.70
2023-03-16T05:43:08.538Z,1.80
2023-03-16T05:45:36.493Z,1.70
2023-03-16T05:48:05.805Z,1.90
2023-03-16T05:50:33.852Z,1.70
2023-03-16T05:53:01.819Z,1.80
2023-03-16T05:55:29.837Z,1.70
2023-03-16T05:57:59.129Z,1.70
2023-03-16T06:00:27.869Z,1.70
2023-03-16T06:02:56.024Z,1.60
2023-03-16T06:05:25.096Z,1.60
2023-03-16T06:07:53.554Z,1.60
2023-03-16T06:10:22.401Z,1.70
2023-03-16T06:12:50.558Z,1.70
2023-03-16T06:15:20.119Z,1.80
2023-03-16T06:17:48.857Z,1.80
2023-03-16T06:20:17.608Z,1.90
2023-03-16T06:22:46.216Z,2.00
2023-03-16T06:25:15.533Z,2.00
2023-03-16T06:27:45.802Z,1.90
2023-03-16T06:30:15.179Z,2.00
2023-03-16T06:32:45.459Z,2.00
2023-03-16T06:35:14.228Z,2.00
2023-03-16T06:37:42.401Z,2.00
2023-03-16T06:40:12.593Z,1.90
2023-03-16T06:42:41.277Z,2.00
2023-03-16T06:45:11.200Z,2.10
2023-03-16T06:47:39.162Z,2.20
2023-03-16T06:50:09.959Z,2.20
2023-03-16T06:52:37.923Z,2.30
2023-03-16T06:55:06.983Z,2.30
2023-03-16T06:57:35.066Z,2.30
2023-03-16T07:00:04.145Z,2.40
2023-03-16T07:02:32.281Z,2.40
2023-03-16T07:05:00.278Z,2.50
2023-03-16T07:07:29.970Z,2.70
2023-03-16T07:09:58.029Z,3.00
2023-03-16T07:12:26.155Z,3.30
2023-03-16T07:14:54.392Z,3.60
2023-03-16T07:17:22.382Z,3.80
2023-03-16T07:19:50.532Z,4.10
2023-03-16T07:22:18.860Z,4.40
2023-03-16T07:24:52.848Z,4.60
2023-03-16T07:27:21.074Z,4.80
2023-03-16T07:29:49.185Z,4.90
2023-03-16T07:32:17.765Z,5.00
2023-03-16T07:34:45.955Z,5.00
2023-03-16T07:37:18.397Z,5.40
2023-03-16T07:39:51.704Z,5.30
2023-03-16T07:42:20.144Z,5.40
2023-03-16T07:44:49.453Z,5.50
2023-03-16T07:47:18.710Z,5.40
2023-03-16T07:49:46.880Z,5.30
2023-03-16T07:52:15.232Z,5.40
2023-03-16T07:54:43.914Z,5.50
2023-03-16T07:57:13.503Z,5.60
2023-03-16T07:59:44.732Z,5.70
2023-03-16T08:02:15.760Z,5.80
2023-03-16T08:04:44.665Z,5.90
2023-03-16T08:07:17.681Z,6.00
2023-03-16T08:09:46.134Z,6.10
2023-03-16T08:12:16.656Z,6.00
2023-03-16T08:14:45.688Z,6.10
2023-03-16T08:17:14.074Z,6.20
2023-03-16T08:19:42.983Z,6.20
2023-03-16T08:22:11.601Z,6.30
2023-03-16T08:24:40.772Z,6.20
2023-03-16T08:27:08.860Z,6.00
2023-03-16T08:29:40.659Z,6.00
2023-03-16T08:32:10.010Z,5.80
2023-03-16T08:34:39.998Z,5.70
2023-03-16T08:37:08.348Z,6.10
2023-03-16T08:39:36.701Z,6.00
2023-03-16T08:42:04.848Z,5.70
2023-03-16T08:44:33.860Z,5.60
2023-03-16T08:47:05.192Z,5.50
2023-03-16T08:49:33.617Z,5.20
2023-03-16T08:52:01.704Z,5.10
2023-03-16T08:54:30.269Z,5.20
2023-03-16T08:56:58.691Z,5.30
2023-03-16T08:59:30.255Z,5.60
2023-03-16T09:01:59.225Z,5.70
2023-03-16T09:04:30.038Z,5.60
2023-03-16T09:07:08.488Z,5.50
2023-03-16T09:09:37.731Z,5.50
2023-03-16T09:12:07.121Z,5.70
2023-03-16T09:14:38.566Z,5.90
2023-03-16T09:17:07.766Z,6.30
2023-03-16T09:19:50.450Z,6.60
2023-03-16T09:22:19.798Z,6.80
2023-03-16T09:24:48.495Z,6.80
2023-03-16T09:27:17.053Z,6.80
2023-03-16T09:29:45.405Z,7.10
2023-03-16T09:32:14.240Z,6.90
2023-03-16T09:34:44.888Z,7.00
2023-03-16T09:37:12.909Z,12.40
2023-03-16T09:39:41.068Z,15.40
2023-03-16T09:42:17.291Z,12.80
2023-03-16T09:44:54.930Z,10.80
2023-03-16T09:47:28.614Z,9.30
2023-03-16T09:50:03.387Z,13.20
2023-03-16T09:52:38.452Z,11.90
2023-03-16T09:55:13.323Z,10.40
2023-03-16T09:57:44.813Z,17.00
2023-03-16T10:00:18.895Z,23.70
2023-03-16T10:03:09.758Z,26.20
2023-03-16T10:05:40.976Z,20.40
2023-03-16T10:08:14.306Z,15.60
2023-03-16T10:10:59.714Z,21.80
2023-03-16T10:13:36.946Z,27.00
2023-03-16T10:16:11.082Z,27.40
2023-03-16T10:18:44.809Z,25.90
2023-03-16T10:21:16.973Z,29.10
2023-03-16T10:23:46.701Z,29.60
2023-03-16T10:26:18.811Z,28.20
2023-03-16T10:28:48.064Z,22.00
2023-03-16T10:31:18.082Z,17.70
2023-03-16T10:33:46.961Z,15.00
2023-03-16T10:36:25.420Z,12.60
2023-03-16T10:38:55.575Z,10.90
2023-03-16T10:41:28.646Z,9.90
2023-03-16T10:43:58.476Z,9.40
2023-03-16T10:46:28.893Z,9.00
2023-03-16T10:49:01.303Z,9.20
2023-03-16T10:51:33.098Z,9.60
2023-03-16T10:54:11.496Z,10.10
2023-03-16T10:56:40.378Z,10.20
2023-03-16T10:59:29.496Z,10.60
2023-03-16T11:01:58.347Z,10.40
2023-03-16T11:04:26.702Z,9.90
2023-03-16T11:06:58.114Z,9.60
2023-03-16T11:09:32.966Z,9.70
2023-03-16T11:12:03.457Z,9.80
2023-03-16T11:14:37.384Z,9.80
2023-03-16T11:17:12.278Z,9.70
2023-03-16T11:19:48.507Z,10.10
2023-03-16T11:22:21.428Z,10.10
2023-03-16T11:24:53.889Z,10.30
2023-03-16T11:27:26.306Z,10.40
2023-03-16T11:30:07.121Z,10.40
2023-03-16T11:32:38.452Z,10.50
2023-03-16T11:35:14.270Z,10.40
2023-03-16T11:37:54.494Z,9.90
2023-03-16T11:40:37.543Z,9.60
2023-03-16T11:43:22.211Z,9.30
2023-03-16T11:45:59.957Z,9.00
2023-03-16T11:48:38.304Z,8.90
2023-03-16T11:51:11.110Z,8.60
2023-03-16T11:53:52.040Z,8.50
2023-03-16T11:56:30.020Z,8.60
2023-03-16T11:59:48.965Z,8.60
2023-03-16T12:02:40.343Z,8.70
2023-03-16T12:05:24.280Z,8.90
2023-03-16T12:08:04.347Z,8.90
2023-03-16T12:10:39.034Z,9.10
2023-03-16T12:13:33.148Z,9.30
2023-03-16T12:16:05.750Z,9.30
2023-03-16T12:18:42.438Z,9.50
2023-03-16T12:21:16.030Z,9.50
2023-03-16T12:24:00.407Z,9.40
2023-03-16T12:26:32.986Z,9.30
2023-03-16T12:29:08.587Z,9.40
2023-03-16T12:31:43.045Z,9.10
2023-03-16T12:34:24.246Z,8.70
2023-03-16T12:37:13.046Z,8.60
2023-03-16T12:40:09.252Z,8.70
2023-03-16T12:42:50.066Z,8.80
2023-03-16T12:45:25.657Z,9.00
2023-03-16T12:48:03.045Z,9.20
2023-03-16T12:50:31.852Z,9.40
2023-03-16T12:53:00.203Z,9.50
2023-03-16T12:55:41.507Z,9.60
2023-03-16T12:58:12.493Z,9.90
2023-03-16T13:00:42.781Z,10.10
2023-03-16T13:03:16.613Z,10.10
2023-03-16T13:05:47.729Z,10.20
2023-03-16T13:08:17.659Z,10.00
2023-03-16T13:11:01.504Z,9.80
2023-03-16T13:13:31.078Z,9.60
2023-03-16T13:16:09.536Z,9.50
2023-03-16T13:18:41.787Z,9.50
2023-03-16T13:21:21.610Z,9.50
2023-03-16T13:23:57.541Z,9.40
2023-03-16T13:26:40.266Z,9.60
2023-03-16T13:29:23.241Z,9.90
2023-03-16T13:31:52.669Z,9.90
2023-03-16T13:34:27.971Z,10.10
2023-03-16T13:36:58.225Z,10.30
2023-03-16T13:39:28.772Z,10.20
2023-03-16T13:41:59.666Z,10.20
2023-03-16T13:44:30.578Z,9.90
2023-03-16T13:47:03.478Z,9.80
2023-03-16T13:49:31.533Z,9.90
2023-03-16T13:51:59.615Z,10.20
2023-03-16T13:54:30.731Z,10.20
2023-03-16T13:57:01.273Z,10.10
2023-03-16T13:59:31.545Z,9.90
2023-03-16T14:02:02.194Z,9.50
2023-03-16T14:04:33.131Z,9.30
2023-03-16T14:07:03.707Z,8.90
2023-03-16T14:09:35.029Z,8.60
2023-03-16T14:12:03.717Z,8.60
2023-03-16T14:14:39.377Z,8.60
2023-03-16T14:17:12.726Z,8.70
2023-03-16T14:19:44.534Z,8.80
2023-03-16T14:22:15.862Z,8.90
2023-03-16T14:24:45.541Z,8.70
2023-03-16T14:27:23.031Z,8.50
2023-03-16T14:30:00.714Z,8.40
2023-03-16T14:32:30.436Z,8.10
2023-03-16T14:35:15.170Z,7.90
2023-03-16T14:37:43.991Z,7.80
2023-03-16T14:40:28.580Z,8.00
2023-03-16T14:42:58.696Z,8.10
2023-03-16T14:45:32.870Z,8.10
2023-03-16T14:48:05.869Z,8.10
2023-03-16T14:50:34.926Z,8.00
2023-03-16T14:53:04.995Z,7.90
2023-03-16T14:55:32.991Z,7.90
2023-03-16T14:58:00.955Z,7.90
2023-03-16T15:00:32.979Z,7.80
2023-03-16T15:03:06.460Z,7.70
2023-03-16T15:05:37.773Z,7.80
2023-03-16T15:08:09.533Z,7.80
2023-03-16T15:10:38.229Z,7.80
2023-03-16T15:13:16.834Z,7.80
2023-03-16T15:15:48.583Z,7.70
2023-03-16T15:18:16.727Z,7.70
2023-03-16T15:20:49.625Z,7.80
2023-03-16T15:23:18.512Z,7.80
2023-03-16T15:25:47.568Z,7.80
2023-03-16T15:28:17.737Z,7.90
2023-03-16T15:30:49.043Z,7.90
2023-03-16T15:33:17.652Z,7.90
2023-03-16T15:35:46.989Z,7.90
2023-03-16T15:38:17.916Z,7.90
2023-03-16T15:40:47.882Z,8.00
2023-03-16T15:43:18.690Z,8.00
2023-03-16T15:45:48.722Z,8.00
2023-03-16T15:48:17.491Z,8.00
2023-03-16T15:50:51.855Z,8.00
2023-03-16T15:53:30.660Z,8.00
2023-03-16T15:56:03.161Z,7.90
2023-03-16T15:58:32.703Z,7.80
2023-03-16T16:01:04.084Z,7.60
2023-03-16T16:03:33.775Z,7.60
2023-03-16T16:06:02.468Z,7.40
2023-03-16T16:08:30.467Z,7.50
2023-03-16T16:10:58.464Z,7.50
2023-03-16T16:13:43.046Z,7.40
2023-03-16T16:16:15.331Z,7.40
2023-03-16T16:18:43.926Z,7.50
2023-03-16T16:21:17.954Z,7.50
2023-03-16T16:23:46.557Z,7.40
2023-03-16T16:26:26.309Z,7.40
2023-03-16T16:28:58.536Z,7.50
2023-03-16T16:31:30.181Z,7.50
2023-03-16T16:33:59.017Z,7.40
2023-03-16T16:36:27.626Z,7.30
2023-03-16T16:38:57.076Z,7.30
2023-03-16T16:41:28.631Z,7.30
2023-03-16T16:43:57.898Z,7.20
2023-03-16T16:46:29.646Z,7.20
2023-03-16T16:49:01.833Z,7.10
2023-03-16T16:51:30.822Z,7.20
2023-03-16T16:54:00.860Z,7.10
2023-03-16T16:56:31.207Z,7.00
2023-03-16T16:59:00.544Z,6.90
2023-03-16T17:01:32.958Z,6.90
2023-03-16T17:04:01.373Z,6.90
2023-03-16T17:06:29.877Z,6.80
2023-03-16T17:08:57.962Z,6.80
2023-03-16T17:11:29.128Z,6.70
2023-03-16T17:13:59.484Z,6.80
2023-03-16T17:16:31.470Z,6.70
2023-03-16T17:19:00.188Z,6.60
2023-03-16T17:21:31.388Z,6.60
2023-03-16T17:24:00.389Z,6.60
2023-03-16T17:26:31.361Z,6.50
2023-03-16T17:29:02.465Z,6.50
2023-03-16T17:31:35.116Z,6.50
2023-03-16T17:34:04.316Z,6.50
2023-03-16T17:36:32.434Z,6.50
2023-03-16T17:39:02.110Z,6.40
2023-03-16T17:41:33.137Z,6.40
2023-03-16T17:44:05.852Z,6.50
2023-03-16T17:46:35.263Z,6.50
2023-03-16T17:49:03.239Z,6.40
2023-03-16T17:51:32.342Z,6.40
2023-03-16T17:54:00.411Z,6.40
2023-03-16T17:56:29.857Z,6.40
2023-03-16T17:58:58.516Z,6.40
2023-03-16T18:01:32.647Z,6.40
2023-03-16T18:04:02.960Z,6.50
2023-03-16T18:06:31.479Z,6.50
2023-03-16T18:08:59.618Z,6.40
2023-03-16T18:11:34.179Z,6.30
2023-03-16T18:14:04.006Z,6.30
2023-03-16T18:16:32.265Z,6.20
2023-03-16T18:19:05.726Z,6.10
2023-03-16T18:21:36.307Z,6.10
2023-03-16T18:24:04.927Z,6.20
2023-03-16T18:26:32.884Z,6.10
2023-03-16T18:29:00.853Z,6.10
2023-03-16T18:31:30.969Z,6.10
2023-03-16T18:34:02.583Z,6.10
2023-03-16T18:36:33.834Z,6.10
2023-03-16T18:39:03.693Z,6.10
2023-03-16T18:41:33.678Z,6.00
2023-03-16T18:44:06.100Z,6.00
2023-03-16T18:46:36.221Z,5.80
2023-03-16T18:49:14.020Z,5.90
2023-03-16T18:51:51.427Z,5.90
2023-03-16T18:54:22.807Z,5.90
2023-03-16T18:56:51.094Z,5.80
2023-03-16T18:59:19.254Z,5.70
2023-03-16T19:01:48.043Z,5.70
2023-03-16T19:04:22.537Z,5.60
2023-03-16T19:06:53.464Z,5.60
2023-03-16T19:09:23.628Z,5.60
2023-03-16T19:11:51.929Z,5.60
2023-03-16T19:14:22.608Z,5.50
2023-03-16T19:16:50.929Z,5.40
2023-03-16T19:19:21.946Z,5.40
2023-03-16T19:21:51.365Z,5.40
2023-03-16T19:24:23.949Z,5.40
2023-03-16T19:26:52.186Z,5.40
2023-03-16T19:29:23.060Z,5.40
2023-03-16T19:31:51.642Z,5.40
2023-03-16T19:34:21.266Z,5.40
2023-03-16T19:36:49.351Z,5.40
2023-03-16T19:39:18.140Z,5.40
2023-03-16T19:41:49.430Z,5.30
2023-03-16T19:44:20.594Z,5.30
2023-03-16T19:46:50.931Z,5.20
2023-03-16T19:49:21.957Z,5.20
2023-03-16T19:51:51.304Z,5.20
2023-03-16T19:54:23.071Z,5.10
2023-03-16T19:56:51.966Z,5.10
2023-03-16T19:59:21.030Z,5.00
2023-03-16T20:01:49.283Z,5.00
2023-03-16T20:04:24.951Z,4.90
2023-03-16T20:06:53.989Z,4.80
2023-03-16T20:09:23.217Z,4.70
2023-03-16T20:11:51.489Z,4.60
2023-03-16T20:14:22.248Z,4.60
2023-03-16T20:16:50.611Z,4.60
2023-03-16T20:19:20.884Z,4.70
2023-03-16T20:21:51.837Z,4.60
2023-03-16T20:24:22.210Z,4.60
2023-03-16T20:26:51.977Z,4.50
2023-03-16T20:29:26.409Z,4.40
2023-03-16T20:31:54.495Z,4.40
2023-03-16T20:34:24.519Z,4.40
2023-03-16T20:36:54.609Z,4.20
2023-03-16T20:39:22.707Z,4.10
2023-03-16T20:41:51.580Z,4.10
2023-03-16T20:44:21.872Z,4.10
2023-03-16T20:46:50.113Z,4.00
2023-03-16T20:49:32.842Z,4.00
2023-03-16T20:52:02.243Z,3.90
2023-03-16T20:54:30.226Z,4.10
2023-03-16T20:56:58.496Z,4.10
2023-03-16T20:59:29.984Z,4.00
2023-03-16T21:01:57.923Z,3.80
2023-03-16T21:04:28.850Z,3.70
2023-03-16T21:06:57.597Z,3.70
2023-03-16T21:09:27.772Z,3.80
2023-03-16T21:11:55.849Z,3.70
2023-03-16T21:14:25.201Z,3.60
2023-03-16T21:16:59.771Z,3.60
2023-03-16T21:19:27.728Z,3.60
2023-03-16T21:21:55.667Z,3.60
2023-03-16T21:24:23.634Z,3.50
2023-03-16T21:26:53.171Z,3.40
2023-03-16T21:29:22.211Z,3.40
2023-03-16T21:31:50.468Z,3.30
2023-03-16T21:34:24.988Z,3.30
2023-03-16T21:36:53.298Z,3.20
2023-03-16T21:39:25.077Z,3.20
2023-03-16T21:41:54.675Z,3.10
2023-03-16T21:44:22.897Z,3.00
2023-03-16T21:46:51.341Z,3.00
2023-03-16T21:49:19.740Z,3.10
2023-03-16T21:51:47.977Z,3.00
2023-03-16T21:54:16.434Z,2.90
2023-03-16T21:56:44.425Z,2.90
2023-03-16T21:59:14.106Z,2.90
2023-03-16T22:01:58.264Z,2.80
2023-03-16T22:04:29.316Z,2.90
2023-03-16T22:06:57.273Z,3.00
2023-03-16T22:09:30.026Z,3.00
2023-03-16T22:11:58.175Z,2.70
2023-03-16T22:14:28.138Z,2.50
2023-03-16T22:16:56.557Z,2.60
2023-03-16T22:19:25.380Z,2.60
2023-03-16T22:21:53.458Z,2.70
2023-03-16T22:24:24.783Z,2.80
2023-03-16T22:26:53.696Z,2.80
2023-03-16T22:29:25.347Z,2.60
2023-03-16T22:31:58.178Z,2.60
2023-03-16T22:34:29.960Z,2.60
2023-03-16T22:36:58.573Z,2.60
2023-03-16T22:39:27.145Z,2.60
2023-03-16T22:41:55.141Z,2.30
2023-03-16T22:44:24.522Z,2.30
2023-03-16T22:46:52.538Z,2.20
2023-03-16T22:49:28.697Z,2.10
2023-03-16T22:51:58.612Z,2.10
2023-03-16T22:54:29.730Z,2.30
2023-03-16T22:56:58.007Z,2.40
2023-03-16T22:59:27.735Z,2.20
2023-03-16T23:01:56.510Z,2.10
2023-03-16T23:04:30.580Z,1.90
2023-03-16T23:07:00.324Z,1.80
2023-03-16T23:09:28.949Z,2.00
2023-03-16T23:11:57.508Z,2.00
2023-03-16T23:14:28.349Z,2.20
2023-03-16T23:16:56.722Z,2.00
2023-03-16T23:19:29.745Z,1.90
2023-03-16T23:22:00.489Z,1.70
2023-03-16T23:24:28.611Z,1.80
2023-03-16T23:26:56.945Z,1.90
2023-03-16T23:29:26.297Z,1.90
2023-03-16T23:31:54.768Z,2.00
2023-03-16T23:34:25.641Z,2.00
2023-03-16T23:36:53.700Z,2.00
2023-03-16T23:39:21.698Z,1.90
2023-03-16T23:41:50.792Z,1.80
2023-03-16T23:44:22.699Z,1.80
2023-03-16T23:46:50.877Z,1.90
2023-03-16T23:49:22.901Z,1.70
2023-03-16T23:51:53.076Z,1.70
2023-03-16T23:54:23.094Z,1.80
2023-03-16T23:56:51.325Z,1.80
2023-03-16T23:59:21.155Z,1.80
